sensor_id;sensor_type;location;lat;lon;timestamp;P1;durP1;ratioP1;P2;durP2;ratioP2
3523;SDS011;1776;53.330;11.498;2022-09-12T00:00:08;2.67;;;2.30;;
3523;SDS011;1776;53.330;11.498;2022-09-12T00:02:34;3.20;;;2.00;;
3523;SDS011;1776;53.330;11.498;2022-09-12T00:04:59;2.20;;;2.00;;
3523;SDS011;1776;53.330;11.498;2022-09-12T00:07:24;4.10;;;3.20;;
3523;SDS011;1776;53.330;11.498;2022-09-12T00:09:50;2.90;;;2.33;;
3523;SDS011;1776;53.330;11.498;2022-09-12T00:12:15;2.93;;;2.60;;
3523;SDS011;1776;53.330;11.498;2022-09-12T00:14:40;7.00;;;2.50;;
3523;SDS011;1776;53.330;11.498;2022-09-12T00:17:06;2.90;;;2.53;;
3523;SDS011;1776;53.330;11.498;2022-09-12T00:19:31;2.53;;;2.33;;
3523;SDS011;1776;53.330;11.498;2022-09-12T00:21:56;2.57;;;2.33;;
3523;SDS011;1776;53.330;11.498;2022-09-12T00:24:22;3.37;;;2.40;;
3523;SDS011;1776;53.330;11.498;2022-09-12T00:26:47;4.83;;;3.47;;
3523;SDS011;1776;53.330;11.498;2022-09-12T00:29:16;2.90;;;2.23;;
3523;SDS011;1776;53.330;11.498;2022-09-12T00:31:44;2.87;;;2.53;;
3523;SDS011;1776;53.330;11.498;2022-09-12T00:34:10;2.27;;;2.07;;
3523;SDS011;1776;53.330;11.498;2022-09-12T00:36:35;3.70;;;2.17;;
3523;SDS011;1776;53.330;11.498;2022-09-12T00:39:02;3.43;;;2.53;;
3523;SDS011;1776;53.330;11.498;2022-09-12T00:41:30;3.43;;;2.50;;
3523;SDS011;1776;53.330;11.498;2022-09-12T00:44:01;2.90;;;2.13;;
3523;SDS011;1776;53.330;11.498;2022-09-12T00:46:38;4.33;;;1.70;;
3523;SDS011;1776;53.330;11.498;2022-09-12T00:51:41;6.67;;;2.33;;
3523;SDS011;1776;53.330;11.498;2022-09-12T00:54:11;2.40;;;2.20;;
3523;SDS011;1776;53.330;11.498;2022-09-12T00:56:41;2.80;;;1.90;;
3523;SDS011;1776;53.330;11.498;2022-09-12T00:59:14;3.73;;;2.00;;
3523;SDS011;1776;53.330;11.498;2022-09-12T01:01:43;2.70;;;1.87;;
3523;SDS011;1776;53.330;11.498;2022-09-12T01:04:10;2.77;;;1.93;;
3523;SDS011;1776;53.330;11.498;2022-09-12T01:06:40;2.40;;;1.80;;
3523;SDS011;1776;53.330;11.498;2022-09-12T01:09:07;1.83;;;1.73;;
3523;SDS011;1776;53.330;11.498;2022-09-12T01:11:36;2.40;;;2.20;;
3523;SDS011;1776;53.330;11.498;2022-09-12T01:14:03;2.40;;;2.20;;
3523;SDS011;1776;53.330;11.498;2022-09-12T01:16:29;2.63;;;2.00;;
3523;SDS011;1776;53.330;11.498;2022-09-12T01:21:48;2.73;;;2.33;;
3523;SDS011;1776;53.330;11.498;2022-09-12T01:27:24;2.40;;;1.93;;
3523;SDS011;1776;53.330;11.498;2022-09-12T01:35:42;2.93;;;2.73;;
3523;SDS011;1776;53.330;11.498;2022-09-12T01:38:26;2.27;;;2.07;;
3523;SDS011;1776;53.330;11.498;2022-09-12T01:41:02;3.03;;;2.17;;
3523;SDS011;1776;53.330;11.498;2022-09-12T01:46:37;2.73;;;2.40;;
3523;SDS011;1776;53.330;11.498;2022-09-12T01:49:30;2.67;;;2.47;;
3523;SDS011;1776;53.330;11.498;2022-09-12T01:54:54;2.70;;;2.13;;
3523;SDS011;1776;53.330;11.498;2022-09-12T01:57:40;2.80;;;2.60;;
3523;SDS011;1776;53.330;11.498;2022-09-12T02:00:10;5.93;;;2.63;;
3523;SDS011;1776;53.330;11.498;2022-09-12T02:02:38;2.97;;;2.67;;
3523;SDS011;1776;53.330;11.498;2022-09-12T02:05:13;4.10;;;2.90;;
3523;SDS011;1776;53.330;11.498;2022-09-12T02:07:57;3.10;;;2.53;;
3523;SDS011;1776;53.330;11.498;2022-09-12T02:10:31;8.57;;;3.57;;
3523;SDS011;1776;53.330;11.498;2022-09-12T02:13:06;4.67;;;3.57;;
3523;SDS011;1776;53.330;11.498;2022-09-12T02:15:35;4.90;;;2.20;;
3523;SDS011;1776;53.330;11.498;2022-09-12T02:18:04;3.80;;;3.20;;
3523;SDS011;1776;53.330;11.498;2022-09-12T02:20:34;3.93;;;3.53;;
3523;SDS011;1776;53.330;11.498;2022-09-12T02:23:02;5.07;;;3.03;;
3523;SDS011;1776;53.330;11.498;2022-09-12T02:25:32;5.33;;;3.03;;
3523;SDS011;1776;53.330;11.498;2022-09-12T02:28:09;3.00;;;2.60;;
3523;SDS011;1776;53.330;11.498;2022-09-12T02:30:44;2.80;;;2.47;;
3523;SDS011;1776;53.330;11.498;2022-09-12T02:33:24;3.23;;;2.90;;
3523;SDS011;1776;53.330;11.498;2022-09-12T02:35:57;4.40;;;2.93;;
3523;SDS011;1776;53.330;11.498;2022-09-12T02:38:39;2.53;;;2.20;;
3523;SDS011;1776;53.330;11.498;2022-09-12T02:41:08;4.90;;;2.80;;
3523;SDS011;1776;53.330;11.498;2022-09-12T02:43:34;4.10;;;2.70;;
3523;SDS011;1776;53.330;11.498;2022-09-12T02:46:01;2.93;;;2.43;;
3523;SDS011;1776;53.330;11.498;2022-09-12T02:48:30;4.20;;;2.27;;
3523;SDS011;1776;53.330;11.498;2022-09-12T02:50:58;3.23;;;2.93;;
3523;SDS011;1776;53.330;11.498;2022-09-12T02:53:25;3.13;;;2.83;;
3523;SDS011;1776;53.330;11.498;2022-09-12T02:55:51;3.50;;;2.90;;
3523;SDS011;1776;53.330;11.498;2022-09-12T02:58:18;3.60;;;2.40;;
3523;SDS011;1776;53.330;11.498;2022-09-12T03:00:47;3.30;;;2.90;;
3523;SDS011;1776;53.330;11.498;2022-09-12T03:03:19;3.73;;;2.87;;
3523;SDS011;1776;53.330;11.498;2022-09-12T03:05:54;3.53;;;2.80;;
3523;SDS011;1776;53.330;11.498;2022-09-12T03:08:45;6.80;;;2.73;;
3523;SDS011;1776;53.330;11.498;2022-09-12T03:11:23;3.80;;;2.90;;
3523;SDS011;1776;53.330;11.498;2022-09-12T03:14:02;3.17;;;2.40;;
3523;SDS011;1776;53.330;11.498;2022-09-12T03:16:56;2.53;;;2.33;;
3523;SDS011;1776;53.330;11.498;2022-09-12T03:19:49;5.93;;;3.03;;
3523;SDS011;1776;53.330;11.498;2022-09-12T03:22:21;4.40;;;2.83;;
3523;SDS011;1776;53.330;11.498;2022-09-12T03:27:52;4.10;;;3.50;;
3523;SDS011;1776;53.330;11.498;2022-09-12T03:30:23;3.73;;;2.93;;
3523;SDS011;1776;53.330;11.498;2022-09-12T03:32:50;3.00;;;2.70;;
3523;SDS011;1776;53.330;11.498;2022-09-12T03:35:17;4.53;;;3.10;;
3523;SDS011;1776;53.330;11.498;2022-09-12T03:37:45;7.30;;;3.13;;
3523;SDS011;1776;53.330;11.498;2022-09-12T03:40:12;3.00;;;2.40;;
3523;SDS011;1776;53.330;11.498;2022-09-12T03:42:37;3.57;;;2.63;;
3523;SDS011;1776;53.330;11.498;2022-09-12T03:45:03;2.50;;;2.17;;
3523;SDS011;1776;53.330;11.498;2022-09-12T03:47:32;3.73;;;3.10;;
3523;SDS011;1776;53.330;11.498;2022-09-12T03:49:57;4.13;;;2.80;;
3523;SDS011;1776;53.330;11.498;2022-09-12T03:52:23;3.43;;;2.90;;
3523;SDS011;1776;53.330;11.498;2022-09-12T03:54:49;4.13;;;3.67;;
3523;SDS011;1776;53.330;11.498;2022-09-12T03:57:14;4.40;;;2.93;;
3523;SDS011;1776;53.330;11.498;2022-09-12T03:59:39;3.60;;;3.10;;
3523;SDS011;1776;53.330;11.498;2022-09-12T04:02:04;4.73;;;3.33;;
3523;SDS011;1776;53.330;11.498;2022-09-12T04:04:30;6.20;;;3.30;;
3523;SDS011;1776;53.330;11.498;2022-09-12T04:06:56;3.60;;;2.73;;
3523;SDS011;1776;53.330;11.498;2022-09-12T04:09:21;3.57;;;3.10;;
3523;SDS011;1776;53.330;11.498;2022-09-12T04:11:47;3.83;;;2.80;;
3523;SDS011;1776;53.330;11.498;2022-09-12T04:14:12;12.90;;;3.60;;
3523;SDS011;1776;53.330;11.498;2022-09-12T04:16:37;4.10;;;3.37;;
3523;SDS011;1776;53.330;11.498;2022-09-12T04:19:02;5.13;;;4.63;;
3523;SDS011;1776;53.330;11.498;2022-09-12T04:21:28;5.10;;;4.13;;
3523;SDS011;1776;53.330;11.498;2022-09-12T04:23:53;7.13;;;4.77;;
3523;SDS011;1776;53.330;11.498;2022-09-12T04:26:18;5.70;;;4.13;;
3523;SDS011;1776;53.330;11.498;2022-09-12T04:28:44;8.30;;;3.70;;
3523;SDS011;1776;53.330;11.498;2022-09-12T04:31:15;8.27;;;3.40;;
3523;SDS011;1776;53.330;11.498;2022-09-12T04:33:42;4.80;;;3.93;;
3523;SDS011;1776;53.330;11.498;2022-09-12T04:36:11;4.30;;;3.27;;
3523;SDS011;1776;53.330;11.498;2022-09-12T04:38:41;7.60;;;4.13;;
3523;SDS011;1776;53.330;11.498;2022-09-12T04:41:15;10.07;;;4.27;;
3523;SDS011;1776;53.330;11.498;2022-09-12T04:43:42;4.70;;;3.80;;
3523;SDS011;1776;53.330;11.498;2022-09-12T04:46:12;6.83;;;4.60;;
3523;SDS011;1776;53.330;11.498;2022-09-12T04:48:40;5.13;;;4.60;;
3523;SDS011;1776;53.330;11.498;2022-09-12T04:51:10;6.47;;;4.70;;
3523;SDS011;1776;53.330;11.498;2022-09-12T04:53:38;8.77;;;6.03;;
3523;SDS011;1776;53.330;11.498;2022-09-12T04:56:05;7.17;;;5.90;;
3523;SDS011;1776;53.330;11.498;2022-09-12T04:58:33;10.53;;;6.50;;
3523;SDS011;1776;53.330;11.498;2022-09-12T05:03:30;6.73;;;5.50;;
3523;SDS011;1776;53.330;11.498;2022-09-12T05:05:55;6.87;;;5.60;;
3523;SDS011;1776;53.330;11.498;2022-09-12T05:08:21;8.30;;;5.93;;
3523;SDS011;1776;53.330;11.498;2022-09-12T05:10:46;9.63;;;6.27;;
3523;SDS011;1776;53.330;11.498;2022-09-12T05:13:11;7.30;;;5.87;;
3523;SDS011;1776;53.330;11.498;2022-09-12T05:15:36;8.30;;;6.03;;
3523;SDS011;1776;53.330;11.498;2022-09-12T05:18:02;8.40;;;6.60;;
3523;SDS011;1776;53.330;11.498;2022-09-12T05:20:27;6.70;;;5.30;;
3523;SDS011;1776;53.330;11.498;2022-09-12T05:22:52;9.67;;;7.13;;
3523;SDS011;1776;53.330;11.498;2022-09-12T05:25:17;8.57;;;6.23;;
3523;SDS011;1776;53.330;11.498;2022-09-12T05:27:43;7.57;;;5.43;;
3523;SDS011;1776;53.330;11.498;2022-09-12T05:30:08;7.33;;;5.57;;
3523;SDS011;1776;53.330;11.498;2022-09-12T05:32:34;6.77;;;5.20;;
3523;SDS011;1776;53.330;11.498;2022-09-12T05:34:59;8.43;;;5.93;;
3523;SDS011;1776;53.330;11.498;2022-09-12T05:37:25;7.43;;;5.50;;
3523;SDS011;1776;53.330;11.498;2022-09-12T05:39:50;6.00;;;5.00;;
3523;SDS011;1776;53.330;11.498;2022-09-12T05:42:16;8.00;;;5.67;;
3523;SDS011;1776;53.330;11.498;2022-09-12T05:44:42;5.87;;;5.07;;
3523;SDS011;1776;53.330;11.498;2022-09-12T05:47:07;6.30;;;5.37;;
3523;SDS011;1776;53.330;11.498;2022-09-12T05:49:35;7.67;;;5.80;;
3523;SDS011;1776;53.330;11.498;2022-09-12T05:52:01;9.77;;;5.17;;
3523;SDS011;1776;53.330;11.498;2022-09-12T05:54:27;8.63;;;5.60;;
3523;SDS011;1776;53.330;11.498;2022-09-12T05:56:52;6.87;;;5.67;;
3523;SDS011;1776;53.330;11.498;2022-09-12T05:59:18;12.23;;;5.50;;
3523;SDS011;1776;53.330;11.498;2022-09-12T06:01:45;5.50;;;4.77;;
3523;SDS011;1776;53.330;11.498;2022-09-12T06:04:10;6.20;;;4.67;;
3523;SDS011;1776;53.330;11.498;2022-09-12T06:06:39;5.07;;;4.57;;
3523;SDS011;1776;53.330;11.498;2022-09-12T06:09:07;7.50;;;6.20;;
3523;SDS011;1776;53.330;11.498;2022-09-12T06:11:34;6.00;;;5.23;;
3523;SDS011;1776;53.330;11.498;2022-09-12T06:14:01;11.47;;;5.20;;
3523;SDS011;1776;53.330;11.498;2022-09-12T06:16:28;7.13;;;5.70;;
3523;SDS011;1776;53.330;11.498;2022-09-12T06:18:58;6.83;;;5.70;;
3523;SDS011;1776;53.330;11.498;2022-09-12T06:21:26;6.83;;;5.13;;
3523;SDS011;1776;53.330;11.498;2022-09-12T06:23:52;7.30;;;4.60;;
3523;SDS011;1776;53.330;11.498;2022-09-12T06:26:19;4.80;;;4.30;;
3523;SDS011;1776;53.330;11.498;2022-09-12T06:28:49;7.87;;;5.10;;
3523;SDS011;1776;53.330;11.498;2022-09-12T06:31:16;7.00;;;4.80;;
3523;SDS011;1776;53.330;11.498;2022-09-12T06:33:48;7.87;;;3.80;;
3523;SDS011;1776;53.330;11.498;2022-09-12T06:36:16;5.50;;;4.57;;
3523;SDS011;1776;53.330;11.498;2022-09-12T06:38:46;5.53;;;4.57;;
3523;SDS011;1776;53.330;11.498;2022-09-12T06:41:15;7.83;;;5.60;;
3523;SDS011;1776;53.330;11.498;2022-09-12T06:43:41;5.10;;;4.60;;
3523;SDS011;1776;53.330;11.498;2022-09-12T06:46:07;5.73;;;4.93;;
3523;SDS011;1776;53.330;11.498;2022-09-12T06:48:33;5.53;;;5.03;;
3523;SDS011;1776;53.330;11.498;2022-09-12T06:51:00;5.63;;;4.90;;
3523;SDS011;1776;53.330;11.498;2022-09-12T06:53:27;6.20;;;5.20;;
3523;SDS011;1776;53.330;11.498;2022-09-12T06:55:55;6.50;;;4.50;;
3523;SDS011;1776;53.330;11.498;2022-09-12T06:58:24;6.23;;;5.63;;
3523;SDS011;1776;53.330;11.498;2022-09-12T07:00:51;6.20;;;5.30;;
3523;SDS011;1776;53.330;11.498;2022-09-12T07:03:16;8.60;;;6.03;;
3523;SDS011;1776;53.330;11.498;2022-09-12T07:05:42;5.70;;;5.10;;
3523;SDS011;1776;53.330;11.498;2022-09-12T07:08:09;8.10;;;5.93;;
3523;SDS011;1776;53.330;11.498;2022-09-12T07:10:34;7.00;;;6.30;;
3523;SDS011;1776;53.330;11.498;2022-09-12T07:12:59;5.80;;;5.30;;
3523;SDS011;1776;53.330;11.498;2022-09-12T07:15:25;6.67;;;5.10;;
3523;SDS011;1776;53.330;11.498;2022-09-12T07:17:51;5.33;;;4.83;;
3523;SDS011;1776;53.330;11.498;2022-09-12T07:20:16;7.70;;;6.73;;
3523;SDS011;1776;53.330;11.498;2022-09-12T07:22:41;8.47;;;4.63;;
3523;SDS011;1776;53.330;11.498;2022-09-12T07:25:07;6.50;;;5.07;;
3523;SDS011;1776;53.330;11.498;2022-09-12T07:27:33;6.77;;;5.70;;
3523;SDS011;1776;53.330;11.498;2022-09-12T07:29:58;6.73;;;4.50;;
3523;SDS011;1776;53.330;11.498;2022-09-12T07:32:24;9.77;;;5.33;;
3523;SDS011;1776;53.330;11.498;2022-09-12T07:34:50;6.63;;;4.60;;
3523;SDS011;1776;53.330;11.498;2022-09-12T07:37:16;4.77;;;4.20;;
3523;SDS011;1776;53.330;11.498;2022-09-12T07:39:41;3.63;;;3.37;;
3523;SDS011;1776;53.330;11.498;2022-09-12T07:42:07;9.07;;;5.07;;
3523;SDS011;1776;53.330;11.498;2022-09-12T07:44:32;7.30;;;4.20;;
3523;SDS011;1776;53.330;11.498;2022-09-12T07:46:57;4.67;;;4.20;;
3523;SDS011;1776;53.330;11.498;2022-09-12T07:49:23;6.50;;;5.00;;
3523;SDS011;1776;53.330;11.498;2022-09-12T07:51:48;4.00;;;3.60;;
3523;SDS011;1776;53.330;11.498;2022-09-12T07:54:13;4.30;;;3.87;;
3523;SDS011;1776;53.330;11.498;2022-09-12T07:56:39;5.73;;;5.13;;
3523;SDS011;1776;53.330;11.498;2022-09-12T07:59:05;6.70;;;4.60;;
3523;SDS011;1776;53.330;11.498;2022-09-12T08:01:34;4.07;;;3.63;;
3523;SDS011;1776;53.330;11.498;2022-09-12T08:03:59;3.63;;;3.30;;
3523;SDS011;1776;53.330;11.498;2022-09-12T08:06:26;4.90;;;4.23;;
3523;SDS011;1776;53.330;11.498;2022-09-12T08:08:55;5.10;;;4.60;;
3523;SDS011;1776;53.330;11.498;2022-09-12T08:11:22;4.50;;;3.23;;
3523;SDS011;1776;53.330;11.498;2022-09-12T08:13:48;9.27;;;4.80;;
3523;SDS011;1776;53.330;11.498;2022-09-12T08:16:17;4.53;;;3.80;;
3523;SDS011;1776;53.330;11.498;2022-09-12T08:18:44;6.50;;;5.70;;
3523;SDS011;1776;53.330;11.498;2022-09-12T08:21:13;6.37;;;5.77;;
3523;SDS011;1776;53.330;11.498;2022-09-12T08:23:43;5.23;;;4.60;;
3523;SDS011;1776;53.330;11.498;2022-09-12T08:26:09;7.97;;;6.00;;
3523;SDS011;1776;53.330;11.498;2022-09-12T08:28:36;8.30;;;6.33;;
3523;SDS011;1776;53.330;11.498;2022-09-12T08:31:05;9.23;;;8.13;;
3523;SDS011;1776;53.330;11.498;2022-09-12T08:33:32;8.83;;;6.30;;
3523;SDS011;1776;53.330;11.498;2022-09-12T08:36:08;5.77;;;5.00;;
3523;SDS011;1776;53.330;11.498;2022-09-12T08:38:36;9.00;;;6.90;;
3523;SDS011;1776;53.330;11.498;2022-09-12T08:49:02;7.20;;;4.60;;
3523;SDS011;1776;53.330;11.498;2022-09-12T08:51:32;4.40;;;4.10;;
3523;SDS011;1776;53.330;11.498;2022-09-12T08:53:59;4.30;;;3.90;;
3523;SDS011;1776;53.330;11.498;2022-09-12T08:56:26;3.77;;;3.47;;
3523;SDS011;1776;53.330;11.498;2022-09-12T08:58:56;6.40;;;3.30;;
3523;SDS011;1776;53.330;11.498;2022-09-12T09:01:25;3.60;;;3.17;;
3523;SDS011;1776;53.330;11.498;2022-09-12T09:06:56;4.20;;;2.80;;
3523;SDS011;1776;53.330;11.498;2022-09-12T09:10:00;4.03;;;3.07;;
3523;SDS011;1776;53.330;11.498;2022-09-12T09:15:22;4.30;;;2.87;;
3523;SDS011;1776;53.330;11.498;2022-09-12T09:18:28;3.70;;;2.70;;
3523;SDS011;1776;53.330;11.498;2022-09-12T09:21:13;2.90;;;2.60;;
3523;SDS011;1776;53.330;11.498;2022-09-12T09:23:45;4.30;;;3.10;;
3523;SDS011;1776;53.330;11.498;2022-09-12T09:26:16;3.40;;;3.13;;
3523;SDS011;1776;53.330;11.498;2022-09-12T09:28:58;6.97;;;2.70;;
3523;SDS011;1776;53.330;11.498;2022-09-12T09:31:36;2.47;;;2.27;;
3523;SDS011;1776;53.330;11.498;2022-09-12T09:34:14;3.53;;;2.50;;
3523;SDS011;1776;53.330;11.498;2022-09-12T09:37:05;4.47;;;2.27;;
3523;SDS011;1776;53.330;11.498;2022-09-12T09:45:17;4.13;;;2.33;;
3523;SDS011;1776;53.330;11.498;2022-09-12T09:47:47;2.27;;;1.93;;
3523;SDS011;1776;53.330;11.498;2022-09-12T09:50:18;2.60;;;1.70;;
3523;SDS011;1776;53.330;11.498;2022-09-12T09:52:44;2.40;;;2.20;;
3523;SDS011;1776;53.330;11.498;2022-09-12T09:55:13;2.20;;;2.00;;
3523;SDS011;1776;53.330;11.498;2022-09-12T09:57:45;5.67;;;2.97;;
3523;SDS011;1776;53.330;11.498;2022-09-12T10:00:20;2.50;;;2.30;;
3523;SDS011;1776;53.330;11.498;2022-09-12T10:05:47;3.17;;;2.40;;
3523;SDS011;1776;53.330;11.498;2022-09-12T10:08:25;2.47;;;2.27;;
3523;SDS011;1776;53.330;11.498;2022-09-12T10:11:00;3.17;;;2.70;;
3523;SDS011;1776;53.330;11.498;2022-09-12T10:13:33;2.90;;;2.40;;
3523;SDS011;1776;53.330;11.498;2022-09-12T10:16:28;2.67;;;2.43;;
3523;SDS011;1776;53.330;11.498;2022-09-12T10:18:54;2.20;;;2.00;;
3523;SDS011;1776;53.330;11.498;2022-09-12T10:24:25;2.53;;;2.30;;
3523;SDS011;1776;53.330;11.498;2022-09-12T10:26:55;5.13;;;2.30;;
3523;SDS011;1776;53.330;11.498;2022-09-12T10:29:43;3.20;;;2.40;;
3523;SDS011;1776;53.330;11.498;2022-09-12T10:32:09;3.63;;;2.67;;
3523;SDS011;1776;53.330;11.498;2022-09-12T10:34:38;3.00;;;2.07;;
3523;SDS011;1776;53.330;11.498;2022-09-12T10:37:17;2.67;;;2.30;;
3523;SDS011;1776;53.330;11.498;2022-09-12T10:39:49;2.20;;;2.00;;
3523;SDS011;1776;53.330;11.498;2022-09-12T10:42:30;2.50;;;2.33;;
3523;SDS011;1776;53.330;11.498;2022-09-12T10:45:22;5.50;;;2.70;;
3523;SDS011;1776;53.330;11.498;2022-09-12T10:47:53;2.97;;;2.77;;
3523;SDS011;1776;53.330;11.498;2022-09-12T10:50:27;3.37;;;3.07;;
3523;SDS011;1776;53.330;11.498;2022-09-12T10:53:12;2.80;;;2.00;;
3523;SDS011;1776;53.330;11.498;2022-09-12T10:55:53;2.67;;;2.47;;
3523;SDS011;1776;53.330;11.498;2022-09-12T11:04:01;5.97;;;3.33;;
3523;SDS011;1776;53.330;11.498;2022-09-12T11:06:34;2.40;;;2.20;;
3523;SDS011;1776;53.330;11.498;2022-09-12T11:09:13;2.10;;;1.93;;
3523;SDS011;1776;53.330;11.498;2022-09-12T11:11:52;4.37;;;2.57;;
3523;SDS011;1776;53.330;11.498;2022-09-12T11:17:22;2.90;;;2.57;;
3523;SDS011;1776;53.330;11.498;2022-09-12T11:25:29;1.87;;;1.77;;
3523;SDS011;1776;53.330;11.498;2022-09-12T11:28:19;5.53;;;2.67;;
3523;SDS011;1776;53.330;11.498;2022-09-12T11:30:58;2.40;;;2.20;;
3523;SDS011;1776;53.330;11.498;2022-09-12T11:33:40;3.90;;;2.27;;
3523;SDS011;1776;53.330;11.498;2022-09-12T11:36:11;2.30;;;2.20;;
3523;SDS011;1776;53.330;11.498;2022-09-12T11:38:55;3.27;;;2.10;;
3523;SDS011;1776;53.330;11.498;2022-09-12T11:41:44;1.30;;;1.20;;
3523;SDS011;1776;53.330;11.498;2022-09-12T11:44:17;2.40;;;2.20;;
3523;SDS011;1776;53.330;11.498;2022-09-12T11:46:45;3.07;;;2.23;;
3523;SDS011;1776;53.330;11.498;2022-09-12T11:54:23;2.60;;;1.97;;
3523;SDS011;1776;53.330;11.498;2022-09-12T11:56:57;4.13;;;1.90;;
3523;SDS011;1776;53.330;11.498;2022-09-12T11:59:34;2.13;;;1.93;;
3523;SDS011;1776;53.330;11.498;2022-09-12T12:02:10;3.03;;;2.70;;
3523;SDS011;1776;53.330;11.498;2022-09-12T12:04:50;3.53;;;1.97;;
3523;SDS011;1776;53.330;11.498;2022-09-12T12:07:28;4.73;;;2.33;;
3523;SDS011;1776;53.330;11.498;2022-09-12T12:10:02;2.37;;;2.10;;
3523;SDS011;1776;53.330;11.498;2022-09-12T12:12:29;1.93;;;1.83;;
3523;SDS011;1776;53.330;11.498;2022-09-12T12:14:55;3.60;;;1.97;;
3523;SDS011;1776;53.330;11.498;2022-09-12T12:17:22;1.87;;;1.60;;
3523;SDS011;1776;53.330;11.498;2022-09-12T12:19:55;2.17;;;1.97;;
3523;SDS011;1776;53.330;11.498;2022-09-12T12:22:23;1.43;;;1.33;;
3523;SDS011;1776;53.330;11.498;2022-09-12T12:31:09;2.03;;;1.57;;
3523;SDS011;1776;53.330;11.498;2022-09-12T12:43:52;2.07;;;1.60;;
3523;SDS011;1776;53.330;11.498;2022-09-12T12:46:23;1.90;;;1.80;;
3523;SDS011;1776;53.330;11.498;2022-09-12T12:49:09;3.90;;;2.00;;
3523;SDS011;1776;53.330;11.498;2022-09-12T12:51:54;1.80;;;1.70;;
3523;SDS011;1776;53.330;11.498;2022-09-12T12:54:30;4.60;;;2.27;;
3523;SDS011;1776;53.330;11.498;2022-09-12T12:57:03;2.47;;;2.20;;
3523;SDS011;1776;53.330;11.498;2022-09-12T12:59:50;4.10;;;2.10;;
3523;SDS011;1776;53.330;11.498;2022-09-12T13:02:21;2.20;;;2.00;;
3523;SDS011;1776;53.330;11.498;2022-09-12T13:04:51;1.93;;;1.80;;
3523;SDS011;1776;53.330;11.498;2022-09-12T13:07:20;2.87;;;2.20;;
3523;SDS011;1776;53.330;11.498;2022-09-12T13:09:53;1.70;;;1.60;;
3523;SDS011;1776;53.330;11.498;2022-09-12T13:12:20;1.80;;;1.70;;
3523;SDS011;1776;53.330;11.498;2022-09-12T13:14:53;2.10;;;1.90;;
3523;SDS011;1776;53.330;11.498;2022-09-12T13:17:20;1.87;;;1.77;;
3523;SDS011;1776;53.330;11.498;2022-09-12T13:19:46;2.00;;;1.90;;
3523;SDS011;1776;53.330;11.498;2022-09-12T13:22:12;2.43;;;2.23;;
3523;SDS011;1776;53.330;11.498;2022-09-12T13:24:44;2.00;;;1.90;;
3523;SDS011;1776;53.330;11.498;2022-09-12T13:27:20;2.10;;;2.00;;
3523;SDS011;1776;53.330;11.498;2022-09-12T13:29:47;3.13;;;2.00;;
3523;SDS011;1776;53.330;11.498;2022-09-12T13:32:13;1.93;;;1.83;;
3523;SDS011;1776;53.330;11.498;2022-09-12T13:34:54;2.57;;;1.70;;
3523;SDS011;1776;53.330;11.498;2022-09-12T13:43:03;2.40;;;2.20;;
3523;SDS011;1776;53.330;11.498;2022-09-12T13:45:42;2.20;;;2.00;;
3523;SDS011;1776;53.330;11.498;2022-09-12T13:48:18;6.60;;;2.10;;
3523;SDS011;1776;53.330;11.498;2022-09-12T13:50:50;2.93;;;2.60;;
3523;SDS011;1776;53.330;11.498;2022-09-12T13:53:21;2.40;;;2.20;;
3523;SDS011;1776;53.330;11.498;2022-09-12T13:55:50;2.57;;;2.20;;
3523;SDS011;1776;53.330;11.498;2022-09-12T14:00:59;1.77;;;1.67;;
3523;SDS011;1776;53.330;11.498;2022-09-12T14:03:40;4.10;;;2.20;;
3523;SDS011;1776;53.330;11.498;2022-09-12T14:06:48;3.80;;;1.77;;
3523;SDS011;1776;53.330;11.498;2022-09-12T14:09:24;1.93;;;1.83;;
3523;SDS011;1776;53.330;11.498;2022-09-12T14:11:53;2.07;;;1.80;;
3523;SDS011;1776;53.330;11.498;2022-09-12T14:14:24;2.27;;;1.97;;
3523;SDS011;1776;53.330;11.498;2022-09-12T14:16:56;1.93;;;1.73;;
3523;SDS011;1776;53.330;11.498;2022-09-12T14:19:22;6.03;;;2.60;;
3523;SDS011;1776;53.330;11.498;2022-09-12T14:21:50;1.87;;;1.77;;
3523;SDS011;1776;53.330;11.498;2022-09-12T14:24:17;1.90;;;1.70;;
3523;SDS011;1776;53.330;11.498;2022-09-12T14:26:44;2.90;;;1.70;;
3523;SDS011;1776;53.330;11.498;2022-09-12T14:29:11;1.70;;;1.60;;
3523;SDS011;1776;53.330;11.498;2022-09-12T14:31:41;1.80;;;1.70;;
3523;SDS011;1776;53.330;11.498;2022-09-12T14:36:36;2.57;;;1.60;;
3523;SDS011;1776;53.330;11.498;2022-09-12T14:39:14;3.20;;;1.90;;
3523;SDS011;1776;53.330;11.498;2022-09-12T14:41:45;1.90;;;1.77;;
3523;SDS011;1776;53.330;11.498;2022-09-12T14:44:18;2.80;;;2.60;;
3523;SDS011;1776;53.330;11.498;2022-09-12T14:46:48;2.00;;;1.90;;
3523;SDS011;1776;53.330;11.498;2022-09-12T14:49:22;1.80;;;1.70;;
3523;SDS011;1776;53.330;11.498;2022-09-12T14:51:58;3.90;;;1.83;;
3523;SDS011;1776;53.330;11.498;2022-09-12T14:56:52;1.60;;;1.50;;
3523;SDS011;1776;53.330;11.498;2022-09-12T14:59:29;2.03;;;1.93;;
3523;SDS011;1776;53.330;11.498;2022-09-12T15:04:41;2.17;;;1.97;;
3523;SDS011;1776;53.330;11.498;2022-09-12T15:07:33;1.80;;;1.70;;
3523;SDS011;1776;53.330;11.498;2022-09-12T15:10:05;1.67;;;1.57;;
3523;SDS011;1776;53.330;11.498;2022-09-12T15:12:42;1.70;;;1.43;;
3523;SDS011;1776;53.330;11.498;2022-09-12T15:15:17;1.63;;;1.53;;
3523;SDS011;1776;53.330;11.498;2022-09-12T15:17:44;2.10;;;1.90;;
3523;SDS011;1776;53.330;11.498;2022-09-12T15:20:11;1.77;;;1.67;;
3523;SDS011;1776;53.330;11.498;2022-09-12T15:22:37;3.23;;;1.87;;
3523;SDS011;1776;53.330;11.498;2022-09-12T15:25:03;2.10;;;1.87;;
3523;SDS011;1776;53.330;11.498;2022-09-12T15:27:29;6.20;;;2.93;;
3523;SDS011;1776;53.330;11.498;2022-09-12T15:29:55;6.57;;;3.20;;
3523;SDS011;1776;53.330;11.498;2022-09-12T15:32:24;1.93;;;1.83;;
3523;SDS011;1776;53.330;11.498;2022-09-12T15:34:50;2.40;;;2.20;;
3523;SDS011;1776;53.330;11.498;2022-09-12T15:37:16;5.10;;;1.60;;
3523;SDS011;1776;53.330;11.498;2022-09-12T15:39:44;4.60;;;1.43;;
3523;SDS011;1776;53.330;11.498;2022-09-12T15:42:10;1.67;;;1.57;;
3523;SDS011;1776;53.330;11.498;2022-09-12T15:44:36;2.10;;;1.83;;
3523;SDS011;1776;53.330;11.498;2022-09-12T15:47:02;1.70;;;1.60;;
3523;SDS011;1776;53.330;11.498;2022-09-12T15:49:27;2.07;;;1.77;;
3523;SDS011;1776;53.330;11.498;2022-09-12T15:51:52;2.40;;;2.10;;
3523;SDS011;1776;53.330;11.498;2022-09-12T15:54:18;2.20;;;2.00;;
3523;SDS011;1776;53.330;11.498;2022-09-12T15:56:44;1.70;;;1.60;;
3523;SDS011;1776;53.330;11.498;2022-09-12T15:59:10;2.93;;;1.53;;
3523;SDS011;1776;53.330;11.498;2022-09-12T16:01:35;1.90;;;1.80;;
3523;SDS011;1776;53.330;11.498;2022-09-12T16:04:01;1.87;;;1.77;;
3523;SDS011;1776;53.330;11.498;2022-09-12T16:06:27;2.17;;;1.97;;
3523;SDS011;1776;53.330;11.498;2022-09-12T16:08:55;2.20;;;2.00;;
3523;SDS011;1776;53.330;11.498;2022-09-12T16:11:22;1.90;;;1.70;;
3523;SDS011;1776;53.330;11.498;2022-09-12T16:13:50;4.33;;;2.20;;
3523;SDS011;1776;53.330;11.498;2022-09-12T16:16:16;1.63;;;1.53;;
3523;SDS011;1776;53.330;11.498;2022-09-12T16:18:41;2.50;;;2.30;;
3523;SDS011;1776;53.330;11.498;2022-09-12T16:21:07;1.93;;;1.63;;
3523;SDS011;1776;53.330;11.498;2022-09-12T16:23:32;1.63;;;1.53;;
3523;SDS011;1776;53.330;11.498;2022-09-12T16:25:58;2.10;;;1.90;;
3523;SDS011;1776;53.330;11.498;2022-09-12T16:28:25;2.20;;;2.10;;
3523;SDS011;1776;53.330;11.498;2022-09-12T16:30:54;1.93;;;1.83;;
3523;SDS011;1776;53.330;11.498;2022-09-12T16:33:20;2.30;;;2.20;;
3523;SDS011;1776;53.330;11.498;2022-09-12T16:35:46;2.37;;;2.07;;
3523;SDS011;1776;53.330;11.498;2022-09-12T16:38:11;2.83;;;1.53;;
3523;SDS011;1776;53.330;11.498;2022-09-12T16:40:36;2.90;;;1.83;;
3523;SDS011;1776;53.330;11.498;2022-09-12T16:43:01;1.93;;;1.60;;
3523;SDS011;1776;53.330;11.498;2022-09-12T16:45:27;2.03;;;1.80;;
3523;SDS011;1776;53.330;11.498;2022-09-12T16:47:52;1.80;;;1.70;;
3523;SDS011;1776;53.330;11.498;2022-09-12T16:50:17;6.80;;;4.70;;
3523;SDS011;1776;53.330;11.498;2022-09-12T16:52:42;6.27;;;5.30;;
3523;SDS011;1776;53.330;11.498;2022-09-12T16:55:08;8.63;;;7.63;;
3523;SDS011;1776;53.330;11.498;2022-09-12T16:57:33;21.43;;;16.63;;
3523;SDS011;1776;53.330;11.498;2022-09-12T16:59:59;27.80;;;18.00;;